| time (UTC) | temp F | wind direction | speed knots | gust knots | rain 1hr in | rain 24hr in | rain mn in | humidity % | barometer mb |
| 20260507164257 | 51 | 327 | 4.3 | 7.8 | 0.00 | 0.00 | 0.00 | 49 | 1010.4 |
| 20260507163754 | 51 | 158 | 1.7 | 2.6 | 0.00 | 0.00 | 0.00 | 48 | 1010.5 |
| 20260507163252 | 52 | 200 | 0.9 | 0.9 | 0.00 | 0.00 | 0.00 | 49 | 1010.6 |
| 20260507162747 | 52 | 14 | 1.7 | 3.5 | 0.00 | 0.00 | 0.00 | 47 | 1010.6 |
| 20260507162243 | 50 | 156 | 1.7 | 2.6 | 0.00 | 0.00 | 0.00 | 50 | 1010.6 |
| 20260507161741 | 51 | 274 | 3.5 | 3.5 | 0.00 | 0.00 | 0.00 | 47 | 1010.6 |
| 20260507161237 | 51 | 331 | 3.5 | 5.2 | 0.00 | 0.00 | 0.00 | 51 | 1011.0 |
| 20260507160733 | 50 | 243 | 1.7 | 2.6 | 0.00 | 0.00 | 0.00 | 52 | 1010.8 |
| 20260507160230 | 52 | 77 | 2.6 | 3.5 | 0.00 | 0.00 | 0.00 | 51 | 1010.8 |
| 20260507155726 | 52 | 254 | 0.9 | 1.7 | 0.00 | 0.00 | 0.00 | 47 | 1010.8 |
| 20260507155222 | 52 | 72 | 1.7 | 1.7 | 0.00 | 0.00 | 0.00 | 46 | 1011.0 |
| 20260507154719 | 50 | 253 | 4.3 | 5.2 | 0.00 | 0.00 | 0.00 | 51 | 1010.8 |
| 20260507154216 | 51 | 55 | 1.7 | 1.7 | 0.00 | 0.00 | 0.00 | 49 | 1011.0 |
| 20260507153712 | 51 | 228 | 1.7 | 1.7 | 0.00 | 0.00 | 0.00 | 47 | 1010.9 |
| 20260507153209 | 51 | 27 | 3.5 | 5.2 | 0.00 | 0.00 | 0.00 | 50 | 1011.1 |
| 20260507152706 | 51 | 315 | 1.7 | 2.6 | 0.00 | 0.00 | 0.00 | 53 | 1011.1 |
| 20260507152202 | 50 | 186 | 4.3 | 6.1 | 0.00 | 0.00 | 0.00 | 51 | 1011.4 |
| 20260507151658 | 50 | 325 | 2.6 | 3.5 | 0.00 | 0.00 | 0.00 | 53 | 1011.3 |
| 20260507151154 | 50 | 192 | 4.3 | 7.0 | 0.00 | 0.00 | 0.00 | 58 | 1011.4 |
| 20260507150652 | 49 | 307 | 2.6 | 3.5 | 0.00 | 0.00 | 0.00 | 55 | 1011.3 |
| 20260507150148 | 48 | 251 | 4.3 | 6.1 | 0.00 | 0.00 | 0.00 | 57 | 1011.5 |
| 20260507145644 | 49 | 277 | 3.5 | 3.5 | 0.00 | 0.00 | 0.00 | 55 | 1011.6 |
| 20260507145141 | 50 | 285 | 3.5 | 5.2 | 0.00 | 0.00 | 0.00 | 56 | 1011.5 |
| 20260507144637 | 49 | 215 | 1.7 | 1.7 | 0.00 | 0.00 | 0.00 | 55 | 1011.7 |
| 20260507144136 | 49 | 217 | 1.7 | 2.6 | 0.00 | 0.00 | 0.00 | 55 | 1011.7 |
| 20260507143632 | 49 | 251 | 3.5 | 3.5 | 0.00 | 0.00 | 0.00 | 55 | 1011.6 |
| 20260507143130 | 49 | 171 | 0.9 | 0.9 | 0.00 | 0.00 | 0.00 | 58 | 1011.9 |
| 20260507142625 | 48 | 218 | 6.1 | 11.3 | 0.00 | 0.00 | 0.00 | 57 | 1011.8 |
| 20260507142122 | 48 | 265 | 3.5 | 6.1 | 0.00 | 0.00 | 0.00 | 56 | 1011.8 |
| 20260507141618 | 48 | 319 | 5.2 | 7.0 | 0.00 | 0.00 | 0.00 | 56 | 1011.8 |
| 20260507141115 | 48 | 291 | 0.9 | 1.7 | 0.00 | 0.00 | 0.00 | 57 | 1012.0 |
| 20260507140611 | 48 | 161 | 0.0 | 0.9 | 0.00 | 0.00 | 0.00 | 54 | 1011.8 |
| 20260507140109 | 47 | 231 | 2.6 | 2.6 | 0.00 | 0.00 | 0.00 | 58 | 1011.9 |
| 20260507135606 | 48 | 261 | 2.6 | 5.2 | 0.00 | 0.00 | 0.00 | 56 | 1012.0 |
| 20260507135103 | 47 | 206 | 0.9 | 1.7 | 0.00 | 0.00 | 0.00 | 55 | 1012.1 |
| 20260507134559 | 46 | 2 | 2.6 | 3.5 | 0.00 | 0.00 | 0.00 | 60 | 1012.1 |
| 20260507134056 | 46 | 199 | 3.5 | 6.1 | 0.00 | 0.00 | 0.00 | 58 | 1012.3 |
| 20260507133552 | 46 | 207 | 0.0 | 0.9 | 0.00 | 0.00 | 0.00 | 56 | 1012.1 |
| 20260507133050 | 45 | 213 | 1.7 | 1.7 | 0.00 | 0.00 | 0.00 | 59 | 1012.1 |
| 20260507132546 | 45 | 222 | 0.9 | 1.7 | 0.00 | 0.00 | 0.00 | 60 | 1012.1 |
| 20260507132043 | 45 | 212 | 0.0 | 0.9 | 0.00 | 0.00 | 0.00 | 59 | 1012.3 |
| 20260507131539 | 44 | 198 | 0.9 | 1.7 | 0.00 | 0.00 | 0.00 | 62 | 1012.4 |
| 20260507131037 | 44 | 321 | 1.7 | 2.6 | 0.00 | 0.00 | 0.00 | 62 | 1012.4 |
| 20260507130534 | 44 | 26 | 2.6 | 5.2 | 0.00 | 0.00 | 0.00 | 61 | 1012.1 |
| 20260507130032 | 43 | 327 | 1.7 | 1.7 | 0.00 | 0.00 | 0.00 | 60 | 1012.3 |
| 20260507125530 | 43 | 230 | 1.7 | 1.7 | 0.00 | 0.00 | 0.00 | 57 | 1012.3 |
| 20260507125027 | 43 | 188 | 0.9 | 0.9 | 0.00 | 0.00 | 0.00 | 61 | 1012.1 |
| 20260507124523 | 42 | 262 | 0.9 | 0.9 | 0.00 | 0.00 | 0.00 | 60 | 1012.1 |
| 20260507124021 | 42 | 314 | 0.9 | 1.7 | 0.00 | 0.00 | 0.00 | 59 | 1012.3 |
| 20260507123519 | 41 | 320 | 1.7 | 1.7 | 0.00 | 0.00 | 0.00 | 60 | 1012.3 |
| 20260507123016 | 41 | 214 | 0.0 | 0.0 | 0.00 | 0.00 | 0.00 | 65 | 1012.5 |
| 20260507122516 | 41 | 227 | 0.9 | 0.9 | 0.00 | 0.00 | 0.00 | 69 | 1012.3 |
| 20260507122012 | 40 | 204 | 0.0 | 0.0 | 0.00 | 0.00 | 0.00 | 71 | 1012.3 |
| 20260507121508 | 40 | 225 | 0.0 | 0.0 | 0.00 | 0.00 | 0.00 | 70 | 1012.3 |
| 20260507121004 | 39 | 238 | 0.9 | 0.9 | 0.00 | 0.00 | 0.00 | 73 | 1012.3 |
| 20260507120500 | 39 | 200 | 0.0 | 0.0 | 0.00 | 0.00 | 0.00 | 73 | 1012.1 |
| 20260507115957 | 39 | 213 | 0.0 | 0.0 | 0.00 | 0.00 | 0.00 | 79 | 1012.3 |
| 20260507115454 | 38 | 208 | 0.0 | 0.0 | 0.00 | 0.00 | 0.00 | 80 | 1012.3 |
| 20260507114949 | 38 | 217 | 0.0 | 0.0 | 0.00 | 0.00 | 0.00 | 80 | 1012.1 |
| 20260507114446 | 37 | 221 | 0.0 | 0.0 | 0.00 | 0.00 | 0.00 | 80 | 1012.1 |
| 20260507113943 | 37 | 250 | 0.0 | 0.0 | 0.00 | 0.00 | 0.00 | 83 | 1012.0 |
| 20260507113440 | 37 | 204 | 0.0 | 0.0 | 0.00 | 0.00 | 0.00 | 81 | 1011.9 |
| 20260507112937 | 36 | 215 | 0.0 | 0.0 | 0.00 | 0.00 | 0.00 | 83 | 1012.0 |
| 20260507112435 | 36 | 214 | 0.9 | 0.9 | 0.00 | 0.00 | 0.00 | 84 | 1011.8 |
| 20260507111931 | 36 | 202 | 0.9 | 0.9 | 0.00 | 0.00 | 0.00 | 84 | 1011.8 |
| 20260507111429 | 35 | 301 | 0.9 | 0.9 | 0.00 | 0.00 | 0.00 | 83 | 1011.7 |
| 20260507110925 | 35 | 237 | 0.0 | 0.9 | 0.00 | 0.00 | 0.00 | 84 | 1011.7 |
| 20260507110421 | 35 | 220 | 0.0 | 0.9 | 0.00 | 0.00 | 0.00 | 85 | 1011.5 |
| 20260507105918 | 35 | 219 | 0.9 | 1.7 | 0.00 | 0.00 | 0.00 | 85 | 1011.6 |
| 20260507105415 | 34 | 285 | 0.9 | 1.7 | 0.00 | 0.00 | 0.00 | 86 | 1011.5 |
| 20260507104912 | 34 | 301 | 0.0 | 0.9 | 0.00 | 0.00 | 0.00 | 86 | 1011.6 |
| 20260507104408 | 34 | 214 | 0.0 | 0.0 | 0.00 | 0.00 | 0.00 | 86 | 1011.6 |
| 20260507103904 | 34 | 222 | 0.0 | 0.0 | 0.00 | 0.00 | 0.00 | 87 | 1011.5 |
| 20260507103401 | 34 | 234 | 0.0 | 0.0 | 0.00 | 0.00 | 0.00 | 87 | 1011.4 |
| 20260507102857 | 34 | 217 | 0.0 | 0.0 | 0.00 | 0.00 | 0.00 | 87 | 1011.6 |
| 20260507102354 | 33 | 217 | 0.0 | 0.0 | 0.00 | 0.00 | 0.00 | 87 | 1011.6 |
| 20260507101851 | 34 | 216 | 0.0 | 0.0 | 0.00 | 0.00 | 0.00 | 87 | 1011.4 |
| 20260507101350 | 34 | 218 | 0.0 | 0.0 | 0.00 | 0.00 | 0.00 | 87 | 1011.5 |
| 20260507100848 | 34 | 220 | 0.0 | 0.0 | 0.00 | 0.00 | 0.00 | 86 | 1011.7 |
| 20260507100346 | 34 | 224 | 0.0 | 0.0 | 0.00 | 0.00 | 0.00 | 86 | 1011.4 |
| 20260507095843 | 34 | 226 | 0.9 | 0.9 | 0.00 | 0.00 | 0.00 | 86 | 1011.5 |
| 20260507095340 | 34 | 224 | 1.7 | 1.7 | 0.00 | 0.00 | 0.00 | 86 | 1011.5 |
| 20260507094837 | 34 | 217 | 0.0 | 0.0 | 0.00 | 0.00 | 0.00 | 86 | 1011.5 |
| 20260507094333 | 34 | 208 | 0.0 | 0.0 | 0.00 | 0.00 | 0.00 | 86 | 1011.5 |
| 20260507093830 | 34 | 202 | 0.0 | 0.0 | 0.00 | 0.00 | 0.00 | 85 | 1011.4 |
| 20260507093329 | 34 | 210 | 0.0 | 0.0 | 0.00 | 0.00 | 0.00 | 84 | 1011.4 |
| 20260507092826 | 34 | 216 | 0.0 | 0.0 | 0.00 | 0.00 | 0.00 | 84 | 1011.4 |
| 20260507092323 | 34 | 250 | 1.7 | 1.7 | 0.00 | 0.00 | 0.00 | 85 | 1011.5 |
| 20260507091819 | 34 | 250 | 0.0 | 0.9 | 0.00 | 0.00 | 0.00 | 85 | 1011.3 |
| 20260507091316 | 35 | 236 | 0.9 | 0.9 | 0.00 | 0.00 | 0.00 | 85 | 1011.3 |
| 20260507090811 | 35 | 228 | 0.9 | 0.9 | 0.00 | 0.00 | 0.00 | 84 | 1011.3 |
| 20260507090308 | 35 | 234 | 0.9 | 0.9 | 0.00 | 0.00 | 0.00 | 84 | 1011.5 |
| 20260507085805 | 35 | 221 | 0.9 | 0.9 | 0.00 | 0.00 | 0.00 | 84 | 1011.6 |
| 20260507085306 | 35 | 256 | 0.9 | 1.7 | 0.00 | 0.00 | 0.00 | 84 | 1011.5 |
| 20260507084800 | 35 | 305 | 0.9 | 0.9 | 0.00 | 0.00 | 0.00 | 85 | 1011.5 |
| 20260507084256 | 35 | 203 | 0.0 | 0.0 | 0.00 | 0.00 | 0.00 | 84 | 1011.6 |
| 20260507083754 | 35 | 214 | 0.9 | 0.9 | 0.00 | 0.00 | 0.00 | 84 | 1011.7 |
| 20260507083250 | 35 | 246 | 0.0 | 0.9 | 0.00 | 0.00 | 0.00 | 85 | 1011.6 |
| 20260507082746 | 35 | 214 | 0.9 | 0.9 | 0.00 | 0.00 | 0.00 | 85 | 1011.6 |
| 20260507082242 | 35 | 212 | 0.0 | 0.9 | 0.00 | 0.00 | 0.00 | 85 | 1011.4 |
| 20260507081739 | 35 | 207 | 0.0 | 0.0 | 0.00 | 0.00 | 0.00 | 84 | 1011.5 |
| 20260507081235 | 35 | 211 | 0.9 | 0.9 | 0.00 | 0.00 | 0.00 | 84 | 1011.6 |
| 20260507080732 | 35 | 250 | 0.0 | 0.9 | 0.00 | 0.00 | 0.00 | 83 | 1011.7 |
| 20260507080228 | 35 | 214 | 0.0 | 0.0 | 0.00 | 0.00 | 0.00 | 84 | 1011.5 |
| 20260507075723 | 35 | 247 | 0.0 | 0.0 | 0.00 | 0.00 | 0.00 | 84 | 1011.6 |
| 20260507075219 | 35 | 230 | 0.0 | 0.0 | 0.00 | 0.00 | 0.00 | 84 | 1011.7 |
| 20260507074715 | 35 | 212 | 0.0 | 0.0 | 0.00 | 0.00 | 0.00 | 84 | 1011.7 |
| 20260507074215 | 35 | 212 | 0.0 | 0.0 | 0.00 | 0.00 | 0.00 | 84 | 1011.6 |
| 20260507073710 | 35 | 213 | 0.0 | 0.0 | 0.00 | 0.00 | 0.00 | 83 | 1011.5 |
| 20260507073201 | 36 | 214 | 0.0 | 0.0 | 0.00 | 0.00 | 0.00 | 83 | 1011.7 |
| 20260507072659 | 36 | 227 | 0.0 | 0.0 | 0.00 | 0.00 | 0.00 | 83 | 1011.4 |
| 20260507072156 | 36 | 205 | 0.0 | 0.0 | 0.00 | 0.00 | 0.00 | 82 | 1011.6 |
| 20260507071654 | 36 | 222 | 0.9 | 0.9 | 0.00 | 0.00 | 0.00 | 82 | 1011.6 |
| 20260507071149 | 36 | 213 | 0.9 | 0.9 | 0.00 | 0.00 | 0.00 | 82 | 1011.6 |
| 20260507070646 | 36 | 218 | 0.0 | 0.9 | 0.00 | 0.00 | 0.00 | 82 | 1011.6 |
| 20260507070143 | 37 | 217 | 0.0 | 0.0 | 0.00 | 0.00 | 0.00 | 82 | 1011.7 |
| 20260507065640 | 37 | 262 | 0.9 | 0.9 | 0.00 | 0.00 | 0.00 | 81 | 1011.6 |
| 20260507065137 | 37 | 215 | 0.0 | 0.0 | 0.00 | 0.00 | 0.00 | 81 | 1011.7 |
| 20260507064635 | 37 | 257 | 0.9 | 1.7 | 0.00 | 0.00 | 0.00 | 80 | 1011.4 |
| 20260507064133 | 37 | 259 | 1.7 | 1.7 | 0.00 | 0.00 | 0.00 | 80 | 1011.5 |
| 20260507063630 | 38 | 256 | 0.0 | 0.9 | 0.00 | 0.00 | 0.00 | 79 | 1011.5 |
| 20260507063127 | 38 | 237 | 0.9 | 0.9 | 0.00 | 0.00 | 0.00 | 78 | 1011.3 |
| 20260507062624 | 38 | 291 | 0.9 | 0.9 | 0.00 | 0.00 | 0.00 | 76 | 1011.7 |
| 20260507062121 | 39 | 296 | 0.9 | 1.7 | 0.00 | 0.00 | 0.00 | 76 | 1011.7 |
| 20260507061618 | 39 | 288 | 0.9 | 1.7 | 0.00 | 0.00 | 0.00 | 76 | 1011.6 |
| 20260507061117 | 39 | 279 | 1.7 | 1.7 | 0.00 | 0.00 | 0.00 | 75 | 1011.6 |
| 20260507060614 | 39 | 306 | 1.7 | 2.6 | 0.00 | 0.00 | 0.00 | 75 | 1011.6 |
| 20260507060111 | 39 | 281 | 0.9 | 1.7 | 0.00 | 0.00 | 0.00 | 76 | 1011.6 |
| 20260507055607 | 39 | 287 | 1.7 | 2.6 | 0.00 | 0.00 | 0.00 | 74 | 1011.8 |
| 20260507055103 | 40 | 280 | 0.9 | 1.7 | 0.00 | 0.00 | 0.00 | 74 | 1012.0 |
| 20260507054559 | 40 | 299 | 2.6 | 2.6 | 0.00 | 0.00 | 0.00 | 73 | 1012.0 |
| 20260507054056 | 40 | 282 | 1.7 | 2.6 | 0.00 | 0.00 | 0.00 | 73 | 1012.4 |
| 20260507053554 | 40 | 314 | 2.6 | 3.5 | 0.00 | 0.00 | 0.00 | 72 | 1012.3 |
| 20260507053052 | 40 | 322 | 3.5 | 3.5 | 0.00 | 0.00 | 0.00 | 73 | 1012.4 |
| 20260507052550 | 40 | 304 | 1.7 | 1.7 | 0.00 | 0.00 | 0.00 | 74 | 1012.0 |
| 20260507052046 | 40 | 255 | 1.7 | 1.7 | 0.00 | 0.00 | 0.00 | 72 | 1012.0 |
| 20260507051544 | 40 | 249 | 1.7 | 2.6 | 0.00 | 0.00 | 0.00 | 73 | 1012.3 |
| 20260507051041 | 40 | 267 | 1.7 | 1.7 | 0.00 | 0.00 | 0.00 | 73 | 1012.5 |
| 20260507050537 | 40 | 232 | 1.7 | 1.7 | 0.00 | 0.00 | 0.00 | 74 | 1012.1 |
| 20260507050033 | 40 | 288 | 2.6 | 2.6 | 0.00 | 0.00 | 0.00 | 74 | 1012.3 |
| 20260507045530 | 40 | 14 | 1.7 | 2.6 | 0.00 | 0.00 | 0.00 | 74 | 1012.3 |
| 20260507045028 | 40 | 302 | 1.7 | 1.7 | 0.00 | 0.00 | 0.00 | 74 | 1012.1 |
| 20260507044524 | 40 | 295 | 1.7 | 2.6 | 0.00 | 0.00 | 0.00 | 72 | 1012.3 |
| 20260507044021 | 40 | 292 | 1.7 | 1.7 | 0.00 | 0.00 | 0.00 | 72 | 1012.1 |
| 20260507043517 | 40 | 314 | 2.6 | 2.6 | 0.00 | 0.00 | 0.00 | 71 | 1012.1 |
| 20260507043014 | 40 | 258 | 0.9 | 0.9 | 0.00 | 0.00 | 0.00 | 71 | 1012.3 |
| 20260507042510 | 41 | 271 | 0.9 | 0.9 | 0.00 | 0.00 | 0.00 | 71 | 1012.1 |
| 20260507042006 | 41 | 300 | 1.7 | 1.7 | 0.00 | 0.00 | 0.00 | 70 | 1012.4 |
| 20260507041503 | 41 | 217 | 1.7 | 2.6 | 0.00 | 0.00 | 0.00 | 72 | 1012.0 |
| 20260507040959 | 41 | 325 | 3.5 | 5.2 | 0.00 | 0.00 | 0.00 | 71 | 1012.1 |
| 20260507040455 | 41 | 290 | 1.7 | 1.7 | 0.00 | 0.00 | 0.00 | 71 | 1012.3 |
| 20260507035951 | 41 | 318 | 0.9 | 1.7 | 0.00 | 0.00 | 0.00 | 71 | 1012.1 |
| 20260507035448 | 41 | 278 | 0.9 | 1.7 | 0.00 | 0.00 | 0.00 | 71 | 1012.1 |
| 20260507034945 | 41 | 326 | 5.2 | 7.0 | 0.00 | 0.00 | 0.00 | 69 | 1011.8 |
| 20260507034442 | 41 | 309 | 0.9 | 1.7 | 0.00 | 0.00 | 0.00 | 70 | 1011.9 |
| 20260507033940 | 41 | 331 | 0.9 | 1.7 | 0.00 | 0.00 | 0.00 | 71 | 1012.3 |
| 20260507033438 | 41 | 264 | 1.7 | 1.7 | 0.00 | 0.00 | 0.00 | 69 | 1012.1 |
| 20260507032934 | 42 | 263 | 1.7 | 1.7 | 0.00 | 0.00 | 0.00 | 66 | 1012.0 |
| 20260507032431 | 41 | 244 | 0.0 | 0.9 | 0.00 | 0.00 | 0.00 | 68 | 1011.8 |
| 20260507031927 | 42 | 316 | 1.7 | 1.7 | 0.00 | 0.00 | 0.00 | 69 | 1011.9 |
| 20260507031426 | 42 | 309 | 1.7 | 2.6 | 0.00 | 0.00 | 0.00 | 68 | 1011.9 |
| 20260507030920 | 42 | 299 | 0.9 | 1.7 | 0.00 | 0.00 | 0.00 | 69 | 1012.0 |
| 20260507030418 | 42 | 256 | 0.0 | 0.9 | 0.00 | 0.00 | 0.00 | 68 | 1011.9 |
| 20260507025915 | 42 | 295 | 0.9 | 1.7 | 0.00 | 0.00 | 0.00 | 69 | 1011.8 |
| 20260507025412 | 42 | 219 | 0.0 | 0.0 | 0.00 | 0.00 | 0.00 | 71 | 1011.7 |
| 20260507024910 | 42 | 228 | 0.9 | 1.7 | 0.00 | 0.00 | 0.00 | 68 | 1011.7 |
| 20260507024407 | 42 | 296 | 0.9 | 1.7 | 0.00 | 0.00 | 0.00 | 68 | 1011.6 |
| 20260507023903 | 42 | 272 | 1.7 | 1.7 | 0.00 | 0.00 | 0.00 | 67 | 1011.6 |
| 20260507023359 | 42 | 218 | 0.9 | 0.9 | 0.00 | 0.00 | 0.00 | 72 | 1011.4 |
| 20260507022857 | 42 | 299 | 1.7 | 1.7 | 0.00 | 0.00 | 0.00 | 70 | 1011.7 |
| 20260507022353 | 42 | 291 | 2.6 | 2.6 | 0.00 | 0.00 | 0.00 | 69 | 1011.7 |
| 20260507021849 | 42 | 306 | 1.7 | 2.6 | 0.00 | 0.00 | 0.00 | 70 | 1011.6 |
| 20260507021344 | 42 | 235 | 0.9 | 0.9 | 0.00 | 0.00 | 0.00 | 69 | 1011.9 |
| 20260507020843 | 42 | 153 | 1.7 | 2.6 | 0.00 | 0.00 | 0.00 | 73 | 1011.5 |
| 20260507020339 | 42 | 237 | 4.3 | 7.8 | 0.00 | 0.00 | 0.00 | 69 | 1011.3 |
| 20260507015836 | 42 | 279 | 1.7 | 2.6 | 0.00 | 0.00 | 0.00 | 70 | 1011.6 |
| 20260507015334 | 42 | 249 | 3.5 | 3.5 | 0.00 | 0.00 | 0.00 | 70 | 1011.5 |
| 20260507014831 | 42 | 320 | 3.5 | 3.5 | 0.00 | 0.00 | 0.00 | 71 | 1011.6 |
| 20260507014327 | 42 | 309 | 2.6 | 7.0 | 0.00 | 0.00 | 0.00 | 71 | 1011.8 |
| 20260507013823 | 43 | 313 | 2.6 | 2.6 | 0.00 | 0.00 | 0.00 | 70 | 1012.0 |
| 20260507013321 | 43 | 334 | 4.3 | 6.1 | 0.00 | 0.00 | 0.00 | 72 | 1011.9 |
| 20260507012818 | 43 | 305 | 3.5 | 5.2 | 0.00 | 0.00 | 0.00 | 73 | 1012.1 |
| 20260507012314 | 43 | 172 | 2.6 | 3.5 | 0.00 | 0.00 | 0.00 | 70 | 1012.3 |
| 20260507011811 | 43 | 335 | 3.5 | 6.1 | 0.00 | 0.00 | 0.00 | 71 | 1012.0 |
| 20260507011308 | 43 | 296 | 1.7 | 5.2 | 0.00 | 0.00 | 0.00 | 72 | 1012.3 |
| 20260507010808 | 43 | 296 | 4.3 | 5.2 | 0.00 | 0.00 | 0.00 | 72 | 1012.1 |
| 20260507010304 | 44 | 312 | 1.7 | 3.5 | 0.00 | 0.00 | 0.00 | 73 | 1011.9 |
| 20260507005801 | 44 | 290 | 4.3 | 7.8 | 0.00 | 0.00 | 0.00 | 73 | 1011.8 |
| 20260507005257 | 44 | 321 | 1.7 | 2.6 | 0.00 | 0.00 | 0.00 | 73 | 1012.3 |
| 20260507004754 | 44 | 316 | 1.7 | 3.5 | 0.00 | 0.00 | 0.00 | 77 | 1011.9 |
| 20260507004252 | 44 | 212 | 0.9 | 1.7 | 0.00 | 0.00 | 0.00 | 80 | 1011.7 |
| 20260507003748 | 45 | 306 | 1.7 | 1.7 | 0.00 | 0.00 | 0.00 | 78 | 1011.9 |
| 20260507003243 | 45 | 242 | 2.6 | 3.5 | 0.00 | 0.00 | 0.00 | 81 | 1011.6 |
| 20260507002740 | 45 | 334 | 1.7 | 1.7 | 0.00 | 0.00 | 0.00 | 84 | 1011.9 |
| 20260507002236 | 45 | 323 | 2.6 | 2.6 | 0.00 | 0.00 | 0.00 | 85 | 1011.7 |
| 20260507001733 | 45 | 331 | 1.7 | 2.6 | 0.00 | 0.00 | 0.00 | 85 | 1011.5 |
| 20260507001230 | 45 | 262 | 0.9 | 1.7 | 0.00 | 0.00 | 0.00 | 85 | 1011.6 |
| 20260507000726 | 46 | 32 | 2.6 | 3.5 | 0.00 | 0.00 | 0.00 | 86 | 1011.5 |
| 20260507000222 | 46 | 297 | 2.6 | 2.6 | 0.00 | 0.00 | 0.00 | 85 | 1011.1 |
| 20260506235719 | 46 | 308 | 3.5 | 3.5 | 0.00 | 0.00 | 0.00 | 84 | 1011.2 |
| 20260506235214 | 46 | 353 | 1.7 | 1.7 | 0.00 | 0.00 | 0.00 | 86 | 1011.3 |
| 20260506234712 | 46 | 223 | 0.9 | 1.7 | 0.00 | 0.00 | 0.00 | 86 | 1011.0 |
| 20260506234209 | 46 | 294 | 1.7 | 2.6 | 0.00 | 0.00 | 0.00 | 86 | 1010.9 |
| 20260506233707 | 46 | 313 | 1.7 | 2.6 | 0.00 | 0.00 | 0.00 | 86 | 1010.8 |
| 20260506233203 | 46 | 212 | 0.9 | 1.7 | 0.00 | 0.00 | 0.00 | 87 | 1010.9 |
| 20260506232659 | 46 | 324 | 1.7 | 3.5 | 0.00 | 0.00 | 0.00 | 87 | 1010.9 |
| 20260506232154 | 46 | 229 | 0.9 | 0.9 | 0.00 | 0.00 | 0.00 | 87 | 1010.6 |
| 20260506231652 | 46 | 287 | 0.9 | 1.7 | 0.00 | 0.00 | 0.00 | 86 | 1010.4 |
| 20260506231150 | 46 | 230 | 0.0 | 0.9 | 0.00 | 0.00 | 0.00 | 86 | 1010.8 |
| 20260506230647 | 46 | 318 | 0.9 | 1.7 | 0.00 | 0.00 | 0.00 | 85 | 1010.5 |
| 20260506230143 | 46 | 211 | 1.7 | 1.7 | 0.00 | 0.00 | 0.00 | 85 | 1010.5 |
| 20260506225640 | 47 | 282 | 2.6 | 2.6 | 0.00 | 0.00 | 0.00 | 84 | 1010.5 |
| 20260506225137 | 47 | 207 | 1.7 | 2.6 | 0.00 | 0.00 | 0.00 | 86 | 1010.6 |
| 20260506224633 | 47 | 274 | 1.7 | 1.7 | 0.00 | 0.00 | 0.00 | 85 | 1010.3 |
| 20260506224130 | 47 | 275 | 0.9 | 1.7 | 0.00 | 0.00 | 0.00 | 87 | 1010.6 |
| 20260506223626 | 47 | 238 | 1.7 | 2.6 | 0.00 | 0.00 | 0.00 | 87 | 1010.3 |
| 20260506223122 | 47 | 309 | 0.9 | 1.7 | 0.00 | 0.00 | 0.00 | 88 | 1010.2 |
| 20260506222620 | 47 | 98 | 1.7 | 2.6 | 0.00 | 0.00 | 0.00 | 88 | 1010.3 |
| 20260506222116 | 47 | 296 | 0.9 | 1.7 | 0.00 | 0.00 | 0.00 | 87 | 1010.5 |
| 20260506221614 | 47 | 287 | 1.7 | 3.5 | 0.00 | 0.00 | 0.00 | 86 | 1010.4 |
| 20260506221111 | 47 | 307 | 0.9 | 2.6 | 0.00 | 0.00 | 0.00 | 88 | 1010.5 |
| 20260506220608 | 47 | 334 | 2.6 | 3.5 | 0.00 | 0.00 | 0.00 | 86 | 1010.4 |
| 20260506215600 | 47 | 190 | 1.7 | 1.7 | 0.00 | 0.00 | 0.00 | 90 | 1010.2 |
| 20260506215055 | 47 | 315 | 2.6 | 3.5 | 0.00 | 0.00 | 0.00 | 87 | 1009.9 |
| 20260506214552 | 47 | 296 | 3.5 | 5.2 | 0.00 | 0.00 | 0.00 | 87 | 1009.7 |
| 20260506214050 | 47 | 298 | 3.5 | 3.5 | 0.00 | 0.00 | 0.00 | 87 | 1009.7 |
| 20260506213548 | 47 | 314 | 2.6 | 2.6 | 0.00 | 0.00 | 0.00 | 88 | 1009.6 |
| 20260506213045 | 47 | 269 | 2.6 | 3.5 | 0.00 | 0.00 | 0.00 | 88 | 1009.7 |
| 20260506212541 | 47 | 293 | 0.9 | 1.7 | 0.00 | 0.00 | 0.00 | 89 | 1009.9 |
| 20260506212036 | 47 | 30 | 3.5 | 5.2 | 0.00 | 0.00 | 0.00 | 89 | 1009.7 |
| 20260506211532 | 47 | 249 | 0.9 | 1.7 | 0.00 | 0.00 | 0.00 | 89 | 1009.7 |
| 20260506211030 | 47 | 300 | 1.7 | 2.6 | 0.00 | 0.00 | 0.00 | 90 | 1009.5 |
| 20260506210526 | 47 | 277 | 1.7 | 1.7 | 0.00 | 0.00 | 0.00 | 93 | 1009.3 |
| 20260506210023 | 46 | 17 | 2.6 | 2.6 | 0.00 | 0.00 | 0.00 | 95 | 1009.4 |
| 20260506205520 | 46 | 322 | 1.7 | 1.7 | 0.00 | 0.00 | 0.00 | 96 | 1009.3 |
| 20260506205015 | 46 | 296 | 2.6 | 5.2 | 0.00 | 0.00 | 0.00 | 97 | 1009.3 |
| 20260506204514 | 46 | 304 | 4.3 | 6.1 | 0.00 | 0.00 | 0.00 | 96 | 1009.4 |
| 20260506204010 | 46 | 316 | 5.2 | 7.8 | 0.00 | 0.00 | 0.00 | 95 | 1009.4 |
| 20260506203508 | 47 | 237 | 2.6 | 3.5 | 0.00 | 0.00 | 0.00 | 94 | 1009.5 |
| 20260506203004 | 47 | 236 | 0.9 | 1.7 | 0.00 | 0.00 | 0.00 | 93 | 1009.5 |
| 20260506202502 | 47 | 297 | 1.7 | 2.6 | 0.00 | 0.00 | 0.00 | 91 | 1009.5 |
| 20260506201952 | 48 | 250 | 1.7 | 2.6 | 0.00 | 0.00 | 0.00 | 91 | 1009.5 |
| 20260506201450 | 48 | 290 | 3.5 | 5.2 | 0.00 | 0.00 | 0.00 | 92 | 1009.4 |
| 20260506200946 | 48 | 286 | 5.2 | 7.0 | 0.00 | 0.00 | 0.00 | 92 | 1009.1 |
| 20260506200442 | 48 | 259 | 1.7 | 1.7 | 0.00 | 0.00 | 0.00 | 93 | 1009.1 |
| 20260506195939 | 48 | 213 | 0.9 | 1.7 | 0.00 | 0.00 | 0.00 | 94 | 1008.9 |
| 20260506195436 | 48 | 355 | 2.6 | 5.2 | 0.00 | 0.00 | 0.00 | 94 | 1009.0 |
| 20260506194932 | 48 | 290 | 0.9 | 1.7 | 0.00 | 0.00 | 0.00 | 94 | 1009.0 |
| 20260506194430 | 48 | 296 | 5.2 | 7.8 | 0.00 | 0.00 | 0.00 | 94 | 1008.8 |
| 20260506193927 | 48 | 265 | 3.5 | 5.2 | 0.00 | 0.00 | 0.00 | 95 | 1008.6 |
| 20260506193424 | 48 | 207 | 0.0 | 0.9 | 0.00 | 0.00 | 0.00 | 95 | 1008.7 |
| 20260506192920 | 48 | 254 | 5.2 | 6.1 | 0.00 | 0.00 | 0.00 | 94 | 1008.9 |
| 20260506192417 | 48 | 8 | 3.5 | 3.5 | 0.00 | 0.00 | 0.00 | 95 | 1008.7 |
| 20260506191914 | 48 | 297 | 6.1 | 8.7 | 0.00 | 0.00 | 0.00 | 96 | 1008.5 |
| 20260506191410 | 48 | 313 | 2.6 | 2.6 | 0.00 | 0.00 | 0.00 | 97 | 1008.6 |
| 20260506190908 | 48 | 305 | 4.3 | 5.2 | 0.00 | 0.00 | 0.00 | 97 | 1008.4 |
| 20260506190404 | 48 | 288 | 2.6 | 3.5 | 0.00 | 0.00 | 0.00 | 96 | 1008.4 |
| 20260506185901 | 48 | 330 | 5.2 | 8.7 | 0.00 | 0.00 | 0.00 | 97 | 1008.5 |
| 20260506185358 | 49 | 232 | 1.7 | 2.6 | 0.00 | 0.00 | 0.00 | 98 | 1008.5 |
| 20260506184855 | 50 | 293 | 0.9 | 1.7 | 0.00 | 0.00 | 0.00 | 99 | 1008.3 |
| 20260506184352 | 48 | 302 | 1.7 | 2.6 | 0.00 | 0.00 | 0.00 | 99 | 1008.5 |
| 20260506183849 | 48 | 288 | 2.6 | 3.5 | 0.00 | 0.00 | 0.00 | 99 | 1008.4 |
| 20260506183344 | 48 | 311 | 2.6 | 3.5 | 0.00 | 0.00 | 0.00 | 99 | 1008.4 |
| 20260506182842 | 49 | 286 | 2.6 | 3.5 | 0.00 | 0.00 | 0.00 | 99 | 1008.2 |
| 20260506182340 | 48 | 287 | 5.2 | 7.8 | 0.00 | 0.00 | 0.00 | 99 | 1008.5 |
| 20260506181837 | 48 | 274 | 1.7 | 2.6 | 0.00 | 0.00 | 0.00 | 99 | 1008.4 |
| 20260506181335 | 49 | 104 | 4.3 | 5.2 | 0.00 | 0.00 | 0.00 | 99 | 1008.3 |
| 20260506180831 | 49 | 228 | 0.9 | 1.7 | 0.00 | 0.00 | 0.00 | 99 | 1008.2 |
| 20260506180327 | 49 | 223 | 4.3 | 5.2 | 0.00 | 0.00 | 0.00 | 99 | 1008.3 |
| 20260506175823 | 49 | 332 | 3.5 | 3.5 | 0.00 | 0.00 | 0.00 | 99 | 1008.4 |
| 20260506175320 | 49 | 195 | 2.6 | 3.5 | 0.00 | 0.00 | 0.00 | 99 | 1008.1 |
| 20260506174818 | 50 | 245 | 1.7 | 2.6 | 0.00 | 0.00 | 0.00 | 99 | 1008.3 |
| 20260506174315 | 49 | 352 | 4.3 | 6.1 | 0.00 | 0.00 | 0.00 | 99 | 1008.3 |
| 20260506173812 | 49 | 283 | 2.6 | 2.6 | 0.00 | 0.00 | 0.00 | 99 | 1008.1 |
| 20260506173309 | 49 | 299 | 1.7 | 3.5 | 0.00 | 0.00 | 0.00 | 99 | 1008.0 |
| 20260506172806 | 50 | 210 | 0.9 | 0.9 | 0.00 | 0.00 | 0.00 | 99 | 1007.8 |
| 20260506172306 | 49 | 253 | 1.7 | 1.7 | 0.00 | 0.00 | 0.00 | 99 | 1008.1 |
| 20260506171800 | 49 | 316 | 5.2 | 7.0 | 0.00 | 0.00 | 0.00 | 99 | 1007.9 |
| 20260506171257 | 50 | 324 | 3.5 | 3.5 | 0.00 | 0.00 | 0.00 | 99 | 1008.0 |
| 20260506170755 | 50 | 303 | 4.3 | 5.2 | 0.00 | 0.00 | 0.00 | 99 | 1007.8 |
| 20260506170251 | 50 | 234 | 4.3 | 7.0 | 0.00 | 0.00 | 0.00 | 99 | 1007.7 |
| 20260506165749 | 50 | 217 | 1.7 | 1.7 | 0.00 | 0.00 | 0.00 | 99 | 1007.8 |
| 20260506165246 | 50 | 310 | 1.7 | 2.6 | 0.00 | 0.00 | 0.00 | 99 | 1007.8 |
| 20260506164743 | 50 | 254 | 0.9 | 0.9 | 0.00 | 0.00 | 0.00 | 99 | 1007.8 |